Terminal Aerodrome Forecast
Issued by NWS

Home | Current Version | Previous Version | Text Only | Print | Product List | Glossary On
Versions: 1 2 3 4 5 6 7 8 9 10 11 12 13 14 15 16 17 18
000
FTUS41 KGYX 190500
TAFPSM
TAF
KPSM 190534Z 1906/2006 23005KT P6SM BKN100
     FM191300 30012G22KT P6SM SCT050
     FM191700 32018G28KT P6SM FEW050
     FM200000 32008KT P6SM SKC=

USA.gov is the U.S. government's official web portal to all federal, state and local government web resources and services.